Time;durP1;ratioP1;P1;durP2;ratioP2;P2;SDS_P1;SDS_P2;PMS_P1;PMS_P2;Temp;Humidity;BMP_temperature;BMP_pressure;BME280_temperature;BME280_humidity;BME280_pressure;Samples;Min_cycle;Max_cycle;Signal;HPM_P1;HPM_P2
2023/03/03 00:02:16;;;;;;;44.50;27.07;;;;;;;0.50;99.90;102277.63;5024099;28;20556;-58
2023/03/03 00:04:41;;;;;;;43.83;25.63;;;;;;;0.52;99.46;102279.28;5015452;28;20037;-57
2023/03/03 00:07:06;;;;;;;43.90;25.60;;;;;;;0.50;99.32;102277.63;5015609;28;20029;-58
2023/03/03 00:09:32;;;;;;;46.50;26.80;;;;;;;0.58;100.00;102275.56;5016005;28;20096;-58
2023/03/03 00:11:59;;;;;;;45.40;27.30;;;;;;;0.68;100.00;102275.22;5020093;28;20026;-58
2023/03/03 00:14:31;;;;;;;46.63;27.13;;;;;;;0.68;100.00;102280.44;5015610;28;20030;-57
2023/03/03 00:16:59;;;;;;;49.90;27.90;;;;;;;0.60;100.00;102273.72;5014368;28;20038;-57
2023/03/03 00:19:24;;;;;;;46.80;26.60;;;;;;;0.61;100.00;102275.47;5016894;28;20033;-57
2023/03/03 00:21:57;;;;;;;48.07;27.73;;;;;;;0.57;100.00;102276.47;5020045;28;20051;-57
2023/03/03 00:24:32;;;;;;;47.08;27.25;;;;;;;0.58;100.00;102279.97;5020590;28;20555;-57
2023/03/03 00:27:01;;;;;;;45.93;26.50;;;;;;;0.48;100.00;102269.84;5027422;28;20041;-59
2023/03/03 00:29:39;;;;;;;45.13;25.97;;;;;;;0.69;100.00;102279.53;5018107;28;20060;-57
2023/03/03 00:32:10;;;;;;;44.70;26.40;;;;;;;0.60;100.00;102273.72;5025550;28;20404;-59
2023/03/03 00:34:36;;;;;;;46.17;26.57;;;;;;;0.53;100.00;102280.97;5013248;28;20342;-58
2023/03/03 00:37:01;;;;;;;47.60;27.23;;;;;;;0.56;100.00;102287.84;5027582;28;20052;-57
2023/03/03 00:39:34;;;;;;;48.47;27.30;;;;;;;0.50;100.00;102282.88;5029513;28;20386;-58
2023/03/03 00:42:03;;;;;;;44.88;25.02;;;;;;;0.60;100.00;102278.97;5017042;28;20686;-58
2023/03/03 00:44:44;;;;;;;46.00;26.00;;;;;;;0.55;100.00;102280.06;5024577;28;20069;-57
2023/03/03 00:47:34;;;;;;;46.77;25.80;;;;;;;0.56;100.00;102285.22;5014184;28;20064;-59
2023/03/03 00:50:05;;;;;;;42.67;24.80;;;;;;;0.57;100.00;102292.16;5020884;28;20071;-58
2023/03/03 00:52:39;;;;;;;45.47;24.83;;;;;;;0.50;100.00;102294.13;5015032;28;20533;-58
2023/03/03 00:55:06;;;;;;;42.77;25.43;;;;;;;0.43;100.00;102292.69;5014915;28;20042;-57
2023/03/03 00:57:31;;;;;;;43.80;23.70;;;;;;;0.39;100.00;102291.94;5022060;28;20359;-57
2023/03/03 00:59:57;;;;;;;43.63;24.23;;;;;;;0.35;100.00;102295.56;5028153;28;20040;-58
2023/03/03 01:02:22;;;;;;;43.50;24.50;;;;;;;0.37;100.00;102291.16;5028729;28;20099;-57
2023/03/03 01:04:50;;;;;;;44.27;25.40;;;;;;;0.32;100.00;102290.50;5039408;28;20385;-58
2023/03/03 01:07:15;;;;;;;53.00;27.43;;;;;;;0.31;100.00;102288.78;5032430;28;20034;-58
2023/03/03 01:09:41;;;;;;;44.57;25.00;;;;;;;0.27;100.00;102289.81;5038057;28;20163;-59
2023/03/03 01:12:06;;;;;;;44.57;24.67;;;;;;;0.31;100.00;102304.44;5021929;28;20022;-58
2023/03/03 01:14:31;;;;;;;43.47;23.50;;;;;;;0.33;100.00;102307.84;5022558;28;20053;-58
2023/03/03 01:16:58;;;;;;;47.10;25.63;;;;;;;0.29;100.00;102298.41;5033259;28;20063;-57
2023/03/03 01:19:23;;;;;;;48.40;25.60;;;;;;;0.30;100.00;102304.50;5030225;28;20037;-57
2023/03/03 01:21:49;;;;;;;44.30;25.20;;;;;;;0.45;100.00;102303.06;5021372;28;20034;-58
2023/03/03 01:24:14;;;;;;;44.83;25.20;;;;;;;0.29;100.00;102308.84;5025390;28;20037;-58
2023/03/03 01:26:39;;;;;;;46.80;24.97;;;;;;;0.29;100.00;102305.41;5017018;28;20030;-58
2023/03/03 01:29:04;;;;;;;44.63;25.80;;;;;;;0.28;100.00;102315.00;5019416;28;20095;-58
2023/03/03 01:31:30;;;;;;;44.73;24.77;;;;;;;0.29;100.00;102306.25;5018346;28;20034;-57
2023/03/03 01:33:55;;;;;;;46.77;25.50;;;;;;;0.30;100.00;102305.34;5018302;28;20040;-57
2023/03/03 01:36:25;;;;;;;47.07;25.37;;;;;;;0.32;100.00;102305.28;5018559;28;20500;-60
2023/03/03 01:38:50;;;;;;;44.37;25.43;;;;;;;0.35;100.00;102307.78;5021414;28;20049;-58
2023/03/03 01:41:16;;;;;;;42.80;25.00;;;;;;;0.35;100.00;102306.00;5017063;28;20045;-58
2023/03/03 01:43:47;;;;;;;45.33;25.10;;;;;;;0.38;100.00;102311.13;5016543;28;20045;-57
2023/03/03 01:46:30;;;;;;;48.40;25.67;;;;;;;0.51;100.00;102318.50;5017901;28;20052;-60
2023/03/03 01:49:02;;;;;;;42.83;23.75;;;;;;;0.42;100.00;102318.81;5017066;28;20121;-59
2023/03/03 01:51:44;;;;;;;44.53;25.10;;;;;;;0.46;100.00;102317.81;5025522;28;20120;-57
2023/03/03 01:54:17;;;;;;;44.83;24.73;;;;;;;0.43;100.00;102312.72;5022475;28;20504;-58
2023/03/03 01:56:43;;;;;;;43.97;24.98;;;;;;;0.46;100.00;102316.06;5025246;28;20051;-59
2023/03/03 01:59:13;;;;;;;45.87;26.10;;;;;;;0.42;100.00;102305.78;5021112;28;20061;-58
2023/03/03 02:01:40;;;;;;;47.07;25.97;;;;;;;0.42;100.00;102311.84;5022607;28;20021;-57
2023/03/03 02:04:05;;;;;;;43.77;25.60;;;;;;;0.43;100.00;102307.50;5027544;28;20453;-57
2023/03/03 02:06:40;;;;;;;44.27;24.50;;;;;;;0.44;100.00;102299.59;5027106;28;20022;-57
2023/03/03 02:09:32;;;;;;;45.40;24.73;;;;;;;0.48;100.00;102297.72;5019789;28;20037;-57
2023/03/03 02:12:02;;;;;;;43.50;24.30;;;;;;;0.36;100.00;102297.31;5014499;28;20041;-59
2023/03/03 02:14:27;;;;;;;43.37;24.80;;;;;;;0.32;100.00;102308.75;5026722;28;20045;-57
2023/03/03 02:16:53;;;;;;;44.43;24.57;;;;;;;0.31;100.00;102312.28;5026170;28;20126;-58
2023/03/03 02:19:54;;;;;;;43.53;25.10;;;;;;;0.33;100.00;102307.84;5022174;28;20048;-58
2023/03/03 02:22:27;;;;;;;47.17;25.60;;;;;;;0.18;100.00;102308.41;5024115;28;20358;-57
2023/03/03 02:25:02;;;;;;;43.85;23.83;;;;;;;0.22;100.00;102302.16;5021365;28;20040;-57
2023/03/03 02:27:30;;;;;;;40.97;23.00;;;;;;;0.08;100.00;102311.38;5026944;28;20045;-57
2023/03/03 02:29:56;;;;;;;40.10;22.27;;;;;;;0.04;100.00;102309.78;5025232;28;20473;-58
2023/03/03 02:32:21;;;;;;;40.90;22.93;;;;;;;-0.03;100.00;102318.72;5024054;28;20540;-58
2023/03/03 02:34:51;;;;;;;45.33;24.67;;;;;;;-0.20;100.00;102309.75;5022034;28;20045;-57
2023/03/03 02:37:18;;;;;;;44.97;23.93;;;;;;;-0.18;100.00;102318.38;5025323;28;20045;-57
2023/03/03 02:39:44;;;;;;;44.80;25.13;;;;;;;-0.27;100.00;102313.47;5020770;28;20040;-57
2023/03/03 02:42:22;;;;;;;44.97;24.60;;;;;;;-0.22;100.00;102316.78;5024577;28;20034;-57
2023/03/03 02:44:47;;;;;;;48.97;25.20;;;;;;;-0.23;100.00;102309.00;5022305;28;20041;-58
2023/03/03 02:47:13;;;;;;;46.70;24.60;;;;;;;-0.25;100.00;102308.22;5024533;28;20061;-58
2023/03/03 02:49:38;;;;;;;47.07;25.40;;;;;;;-0.30;100.00;102308.41;5020911;28;20029;-58
2023/03/03 02:52:08;;;;;;;47.97;25.10;;;;;;;-0.31;100.00;102311.88;5020000;28;20070;-57
2023/03/03 02:54:34;;;;;;;44.67;24.03;;;;;;;-0.17;100.00;102314.88;5025721;28;20030;-58
2023/03/03 02:56:59;;;;;;;42.63;23.63;;;;;;;-0.23;100.00;102309.88;5024399;28;20056;-57
2023/03/03 02:59:24;;;;;;;45.73;24.10;;;;;;;-0.23;100.00;102317.69;5022588;28;20030;-57
2023/03/03 03:01:51;;;;;;;41.33;22.20;;;;;;;-0.21;100.00;102317.63;5025112;28;20025;-59
2023/03/03 03:04:20;;;;;;;41.67;22.60;;;;;;;-0.27;100.00;102313.47;5021538;28;20026;-58
2023/03/03 03:06:46;;;;;;;40.23;23.57;;;;;;;-0.34;100.00;102322.44;5027854;28;20045;-57
2023/03/03 03:09:12;;;;;;;44.43;24.33;;;;;;;-0.35;100.00;102310.31;5031910;28;20033;-57
2023/03/03 03:11:38;;;;;;;44.03;23.93;;;;;;;-0.27;100.00;102323.91;5024057;28;20485;-58
2023/03/03 03:14:05;;;;;;;43.93;23.73;;;;;;;-0.27;100.00;102323.91;5021634;28;20026;-57
2023/03/03 03:16:30;;;;;;;41.33;21.73;;;;;;;-0.22;100.00;102313.31;5037318;28;20064;-58
2023/03/03 03:18:57;;;;;;;44.40;23.47;;;;;;;-0.23;100.00;102315.09;5037020;28;20057;-58
2023/03/03 03:21:22;;;;;;;41.27;22.50;;;;;;;-0.19;100.00;102324.47;5021117;28;20025;-58
2023/03/03 03:23:47;;;;;;;43.00;22.87;;;;;;;-0.16;100.00;102328.75;5029670;28;20049;-57
2023/03/03 03:26:12;;;;;;;41.73;23.37;;;;;;;-0.14;100.00;102325.19;5025963;28;20034;-57
2023/03/03 03:28:38;;;;;;;42.30;23.10;;;;;;;-0.19;100.00;102321.88;5016713;28;20033;-58
2023/03/03 03:31:05;;;;;;;43.70;23.90;;;;;;;-0.23;100.00;102328.13;5020019;28;20119;-58
2023/03/03 03:33:31;;;;;;;41.03;22.53;;;;;;;-0.15;100.00;102333.06;5023323;28;20034;-57
2023/03/03 03:35:56;;;;;;;42.33;22.50;;;;;;;-0.17;100.00;102327.91;5032306;28;20499;-58
2023/03/03 03:38:23;;;;;;;42.53;23.03;;;;;;;-0.14;100.00;102322.56;5016149;28;20041;-59
2023/03/03 03:40:49;;;;;;;44.60;23.43;;;;;;;-0.10;100.00;102331.13;5019021;28;20045;-57
2023/03/03 03:43:14;;;;;;;42.93;23.50;;;;;;;-0.20;100.00;102335.81;5020903;28;20030;-58
2023/03/03 03:45:42;;;;;;;45.87;24.63;;;;;;;-0.26;100.00;102330.00;5017186;28;20041;-57
2023/03/03 03:48:08;;;;;;;43.93;22.67;;;;;;;-0.23;100.00;102330.72;5014959;28;20117;-59
2023/03/03 03:50:34;;;;;;;43.97;23.73;;;;;;;-0.27;100.00;102329.13;5015647;28;20063;-58
2023/03/03 03:53:00;;;;;;;39.87;21.47;;;;;;;-0.32;100.00;102331.03;5014907;28;20565;-58
2023/03/03 03:55:25;;;;;;;38.77;20.90;;;;;;;-0.27;100.00;102339.56;5014984;28;20033;-56
2023/03/03 03:57:50;;;;;;;36.83;19.33;;;;;;;-0.34;100.00;102343.28;5017601;28;20045;-60
2023/03/03 04:00:16;;;;;;;39.50;21.27;;;;;;;-0.37;100.00;102338.16;5019698;28;20045;-58
2023/03/03 04:02:41;;;;;;;41.37;21.33;;;;;;;-0.45;100.00;102336.69;5021342;28;20036;-58
2023/03/03 04:05:07;;;;;;;43.50;22.83;;;;;;;-0.47;100.00;102341.09;5014614;28;20057;-58
2023/03/03 04:07:33;;;;;;;40.13;21.43;;;;;;;-0.36;100.00;102345.06;5013011;28;21801;-58
2023/03/03 04:09:58;;;;;;;38.43;20.63;;;;;;;-0.38;100.00;102349.50;5013931;28;20440;-60
2023/03/03 04:12:24;;;;;;;37.33;19.10;;;;;;;-0.45;100.00;102344.50;5016950;28;20045;-59
2023/03/03 04:14:49;;;;;;;38.43;20.13;;;;;;;-0.42;100.00;102351.34;5014616;28;20033;-58
2023/03/03 04:17:19;;;;;;;38.10;18.90;;;;;;;-0.42;100.00;102340.94;5015449;28;20030;-59
2023/03/03 04:19:44;;;;;;;37.23;18.63;;;;;;;-0.37;100.00;102348.59;5016684;28;20066;-57
2023/03/03 04:22:11;;;;;;;38.83;20.47;;;;;;;-0.36;100.00;102350.28;5022895;28;20064;-58
2023/03/03 04:24:37;;;;;;;37.00;20.30;;;;;;;-0.41;100.00;102343.50;5022605;28;20446;-57
2023/03/03 04:27:02;;;;;;;37.27;20.80;;;;;;;-0.37;100.00;102348.59;5017269;28;20100;-58
2023/03/03 04:29:27;;;;;;;37.37;20.00;;;;;;;-0.31;100.00;102354.47;5017750;28;20508;-57
2023/03/03 04:31:53;;;;;;;38.47;20.83;;;;;;;-0.31;100.00;102348.38;5015420;28;20022;-57
2023/03/03 04:34:18;;;;;;;39.27;21.77;;;;;;;-0.30;100.00;102350.09;5017799;28;20036;-59
2023/03/03 04:36:43;;;;;;;39.93;21.03;;;;;;;-0.28;100.00;102356.09;5016605;28;20029;-57
2023/03/03 04:39:08;;;;;;;37.73;20.93;;;;;;;-0.28;100.00;102348.28;5013864;28;20116;-57
2023/03/03 04:41:34;;;;;;;35.90;20.67;;;;;;;-0.25;100.00;102353.38;5015300;28;20101;-59
2023/03/03 04:43:59;;;;;;;38.63;21.47;;;;;;;-0.20;100.00;102354.06;5018966;28;20033;-58
2023/03/03 04:46:24;;;;;;;38.80;21.30;;;;;;;-0.22;100.00;102358.50;5022909;28;20037;-59
2023/03/03 04:48:50;;;;;;;39.17;20.07;;;;;;;-0.18;100.00;102349.69;5019700;28;20061;-56
2023/03/03 04:51:15;;;;;;;39.63;20.60;;;;;;;-0.24;100.00;102354.25;5018953;28;20026;-57
2023/03/03 04:53:41;;;;;;;37.33;20.60;;;;;;;-0.26;100.00;102351.69;5015389;28;20033;-58
2023/03/03 04:56:06;;;;;;;36.53;19.73;;;;;;;-0.24;100.00;102360.31;5019959;28;20037;-59
2023/03/03 04:58:32;;;;;;;39.73;20.80;;;;;;;-0.17;100.00;102351.38;5023120;28;20033;-57
2023/03/03 05:00:57;;;;;;;35.07;19.03;;;;;;;-0.18;100.00;102360.09;5027265;28;20057;-57
2023/03/03 05:03:23;;;;;;;39.60;20.40;;;;;;;-0.16;100.00;102352.22;5023608;28;20025;-57
2023/03/03 05:05:49;;;;;;;39.60;20.00;;;;;;;-0.12;100.00;102358.16;5028960;28;20468;-57
2023/03/03 05:08:14;;;;;;;37.73;19.80;;;;;;;-0.16;100.00;102368.72;5040582;28;20029;-59
2023/03/03 05:10:40;;;;;;;36.60;19.23;;;;;;;-0.15;100.00;102353.94;5027709;28;20029;-57
2023/03/03 05:13:06;;;;;;;37.77;19.17;;;;;;;-0.08;100.00;102359.78;5028271;28;20507;-60
2023/03/03 05:15:32;;;;;;;37.03;18.60;;;;;;;-0.15;100.00;102354.78;5030127;28;20029;-57
2023/03/03 05:17:57;;;;;;;39.27;19.87;;;;;;;-0.12;100.00;102358.16;5034101;28;20515;-58
2023/03/03 05:20:24;;;;;;;37.37;19.93;;;;;;;-0.10;100.00;102366.81;5029636;28;20037;-57
2023/03/03 05:22:50;;;;;;;38.00;19.63;;;;;;;-0.13;100.00;102367.75;5021897;28;20038;-59
2023/03/03 05:25:15;;;;;;;40.00;20.10;;;;;;;-0.09;100.00;102363.28;5019924;28;20030;-58
2023/03/03 05:27:42;;;;;;;40.97;20.83;;;;;;;-0.12;100.00;102369.47;5019534;28;20084;-58
2023/03/03 05:30:08;;;;;;;41.97;20.57;;;;;;;-0.09;100.00;102363.28;5018605;28;20025;-58
2023/03/03 05:32:34;;;;;;;39.27;21.07;;;;;;;-0.06;100.00;102370.97;5023562;28;20034;-58
2023/03/03 05:35:00;;;;;;;38.80;20.27;;;;;;;-0.05;100.00;102364.88;5023271;28;20041;-58
2023/03/03 05:37:25;;;;;;;39.23;20.10;;;;;;;-0.08;100.00;102370.19;5028001;28;20034;-59
2023/03/03 05:39:50;;;;;;;39.27;19.53;;;;;;;-0.03;100.00;102368.28;5028393;28;20040;-58
2023/03/03 05:42:15;;;;;;;37.47;19.23;;;;;;;-0.02;100.00;102364.75;5022083;28;20087;-61
2023/03/03 05:44:41;;;;;;;36.73;19.23;;;;;;;0.07;100.00;102361.84;5020283;28;20058;-58
2023/03/03 05:47:06;;;;;;;37.50;19.13;;;;;;;0.01;100.00;102364.66;5017066;28;20053;-60
2023/03/03 05:49:32;;;;;;;37.83;19.77;;;;;;;0.02;100.00;102373.34;5016400;28;20473;-57
2023/03/03 05:51:58;;;;;;;38.10;19.17;;;;;;;0.03;100.00;102372.41;5017077;28;20025;-57
2023/03/03 05:54:23;;;;;;;38.17;18.90;;;;;;;0.04;100.00;102369.75;5019531;28;20022;-58
2023/03/03 05:56:48;;;;;;;36.70;18.43;;;;;;;0.07;100.00;102364.44;5021998;28;20036;-58
2023/03/03 05:59:14;;;;;;;38.67;18.80;;;;;;;0.15;100.00;102376.38;5019623;28;21937;-58
2023/03/03 06:01:39;;;;;;;39.17;19.13;;;;;;;0.09;100.00;102373.06;5021953;28;20054;-58
2023/03/03 06:04:04;;;;;;;39.43;18.73;;;;;;;0.12;100.00;102367.75;5018046;28;20022;-58
2023/03/03 06:06:30;;;;;;;38.33;18.60;;;;;;;0.13;100.00;102373.81;5018769;28;20038;-59
2023/03/03 06:08:55;;;;;;;38.27;20.07;;;;;;;0.13;100.00;102374.66;5019483;28;20080;-59
2023/03/03 06:11:20;;;;;;;37.87;19.37;;;;;;;0.15;100.00;102373.75;5016805;28;20068;-58
2023/03/03 06:13:46;;;;;;;38.63;19.40;;;;;;;0.17;100.00;102369.31;5020866;28;20041;-58
2023/03/03 06:16:11;;;;;;;36.10;18.53;;;;;;;0.19;100.00;102376.19;5017404;28;20064;-58
2023/03/03 06:18:36;;;;;;;38.70;19.87;;;;;;;0.23;100.00;102379.53;5019600;28;20049;-57
2023/03/03 06:21:02;;;;;;;36.43;18.70;;;;;;;0.24;100.00;102382.09;5020268;28;20359;-58
2023/03/03 06:23:27;;;;;;;41.53;20.13;;;;;;;0.26;100.00;102390.72;5018541;28;20040;-58
2023/03/03 06:25:52;;;;;;;37.67;19.33;;;;;;;0.28;100.00;102388.06;5020341;28;20033;-69
2023/03/03 06:28:18;;;;;;;38.17;19.40;;;;;;;0.27;100.00;102396.78;5020243;28;20038;-62
2023/03/03 06:30:43;;;;;;;38.17;19.43;;;;;;;0.29;100.00;102397.56;5017291;28;20071;-62
2023/03/03 06:33:09;;;;;;;38.60;19.43;;;;;;;0.30;100.00;102401.06;5019409;28;20045;-64
2023/03/03 06:35:35;;;;;;;39.20;19.70;;;;;;;0.31;100.00;102402.75;5018715;28;20102;-61
2023/03/03 06:38:01;;;;;;;37.70;18.97;;;;;;;0.32;100.00;102405.31;5016889;28;20029;-58
2023/03/03 06:40:26;;;;;;;38.93;19.80;;;;;;;0.33;100.00;102407.00;5019208;28;20030;-58
2023/03/03 06:42:51;;;;;;;43.17;20.93;;;;;;;0.33;100.00;102416.59;5018542;28;20686;-57
2023/03/03 06:45:18;;;;;;;40.47;20.17;;;;;;;0.34;100.00;102421.75;5018495;28;20029;-59
2023/03/03 06:47:43;;;;;;;40.90;20.03;;;;;;;0.38;100.00;102418.13;5019348;28;20053;-58
2023/03/03 06:50:11;;;;;;;40.20;20.13;;;;;;;0.37;100.00;102421.66;5026443;28;20033;-58
2023/03/03 06:52:36;;;;;;;41.70;21.50;;;;;;;0.42;100.00;102425.84;5023564;28;20029;-60
2023/03/03 06:55:12;;;;;;;43.77;20.53;;;;;;;0.44;100.00;102424.03;5019128;28;20043;-57
2023/03/03 06:57:38;;;;;;;40.67;20.30;;;;;;;0.45;100.00;102436.19;5017724;28;20084;-57
2023/03/03 07:00:26;;;;;;;39.90;20.23;;;;;;;0.49;100.00;102437.78;5022094;28;20501;-57
2023/03/03 07:02:58;;;;;;;39.63;19.63;;;;;;;0.56;100.00;102436.66;5026057;28;20701;-58
2023/03/03 07:05:26;;;;;;;39.17;19.92;;;;;;;0.49;100.00;102443.00;5021162;28;20042;-57
2023/03/03 07:07:53;;;;;;;40.43;19.57;;;;;;;0.48;100.00;102441.28;5019087;28;20469;-58
2023/03/03 07:10:24;;;;;;;39.97;20.07;;;;;;;0.46;100.00;102437.88;5019672;28;20084;-57
2023/03/03 07:12:50;;;;;;;39.63;20.67;;;;;;;0.50;100.00;102444.72;5028023;28;20029;-58
2023/03/03 07:15:19;;;;;;;42.60;21.73;;;;;;;0.55;100.00;102432.34;5018787;28;20632;-57
2023/03/03 07:17:47;;;;;;;41.70;22.10;;;;;;;0.54;100.00;102443.66;5020079;28;20529;-57
2023/03/03 07:20:26;;;;;;;45.47;21.90;;;;;;;0.55;100.00;102432.34;5028288;28;20024;-57
2023/03/03 07:22:52;;;;;;;45.27;23.17;;;;;;;0.53;100.00;102439.34;5036375;28;20032;-58
2023/03/03 07:25:35;;;;;;;46.30;21.20;;;;;;;0.61;100.00;102447.78;5035918;28;20087;-57
2023/03/03 07:28:14;;;;;;;;;;;;;;;0.65;100.00;102446.72;5022312;28;20029;-58
2023/03/03 07:30:39;;;;;;;44.30;21.83;;;;;;;0.60;100.00;102446.03;5019846;28;20373;-59
2023/03/03 07:33:18;;;;;;;42.57;21.03;;;;;;;0.62;100.00;102452.09;5021093;28;20064;-59
2023/03/03 07:35:43;;;;;;;41.23;19.83;;;;;;;0.66;100.00;102451.06;5023873;28;20112;-57
2023/03/03 07:38:34;;;;;;;40.40;20.50;;;;;;;0.65;100.00;102459.78;5019521;28;20025;-58
2023/03/03 07:41:02;;;;;;;42.00;20.70;;;;;;;0.62;100.00;102452.09;5024410;28;20029;-57
2023/03/03 07:43:35;;;;;;;39.73;20.77;;;;;;;0.63;100.00;102455.53;5019337;28;20044;-58
2023/03/03 07:46:02;;;;;;;39.55;19.77;;;;;;;0.62;100.00;102457.31;5017920;28;20115;-57
2023/03/03 07:48:36;;;;;;;40.37;20.37;;;;;;;0.64;100.00;102458.09;5018495;28;20146;-57
2023/03/03 07:51:18;;;;;;;43.13;20.53;;;;;;;0.68;100.00;102463.22;5020959;28;20500;-59
2023/03/03 07:53:43;;;;;;;43.60;21.10;;;;;;;0.70;100.00;102466.63;5020497;28;20041;-58
2023/03/03 07:56:29;;;;;;;43.10;21.70;;;;;;;0.68;100.00;102468.44;5021670;28;20030;-58
2023/03/03 07:58:57;;;;;;;44.47;20.57;;;;;;;0.75;100.00;102470.75;5020060;28;20485;-58
2023/03/03 08:01:57;;;;;;;44.40;20.93;;;;;;;0.74;100.00;102476.03;5021464;28;20068;-58
2023/03/03 08:04:37;;;;;;;41.83;20.13;;;;;;;0.78;100.00;102475.88;5022269;28;20528;-57
2023/03/03 08:07:15;;;;;;;42.23;20.93;;;;;;;0.75;100.00;102475.13;5018322;28;20025;-57
2023/03/03 08:09:43;;;;;;;43.73;20.10;;;;;;;0.76;100.00;102488.16;5018792;28;20038;-58
2023/03/03 08:12:34;;;;;;;42.63;20.10;;;;;;;0.70;100.00;102480.53;5020192;28;20034;-57
2023/03/03 08:15:15;;;;;;;38.97;19.57;;;;;;;0.75;100.00;102480.34;5018210;28;20109;-59
2023/03/03 08:17:41;;;;;;;39.27;19.17;;;;;;;0.72;100.00;102475.22;5022825;28;20383;-58
2023/03/03 08:20:28;;;;;;;41.70;19.50;;;;;;;0.83;100.00;102493.13;5022768;28;20037;-57
2023/03/03 08:22:54;;;;;;;38.03;18.87;;;;;;;0.82;100.00;102489.66;5022782;28;20036;-57
2023/03/03 08:25:19;;;;;;;35.83;17.10;;;;;;;0.87;100.00;102499.94;5024747;28;20041;-57
2023/03/03 08:27:45;;;;;;;36.83;17.87;;;;;;;0.91;99.78;102501.53;5023579;28;20167;-59
2023/03/03 08:30:10;;;;;;;38.40;18.00;;;;;;;0.96;100.00;102503.97;5024867;28;20068;-59
2023/03/03 08:32:36;;;;;;;37.73;18.23;;;;;;;1.00;99.88;102502.94;5019671;28;20033;-59
2023/03/03 08:35:01;;;;;;;35.10;17.57;;;;;;;1.06;99.66;102505.34;5020196;28;20484;-59
2023/03/03 08:37:26;;;;;;;36.33;18.07;;;;;;;1.11;98.57;102503.41;5021571;28;20041;-60
2023/03/03 08:39:51;;;;;;;34.43;16.43;;;;;;;1.14;97.71;102508.50;5020168;28;20075;-58
2023/03/03 08:42:17;;;;;;;37.00;19.07;;;;;;;1.09;99.06;102505.22;5022138;28;20098;-57
2023/03/03 08:44:42;;;;;;;44.10;21.93;;;;;;;1.09;99.67;102510.44;5022108;28;20037;-60
2023/03/03 08:47:08;;;;;;;42.73;21.03;;;;;;;1.09;100.00;102514.81;5021443;28;20395;-58
2023/03/03 08:49:33;;;;;;;42.63;21.33;;;;;;;1.07;100.00;102512.25;5020538;28;20061;-57
2023/03/03 08:51:59;;;;;;;42.50;21.10;;;;;;;1.12;100.00;102515.56;5023959;28;20044;-58
2023/03/03 08:54:25;;;;;;;41.97;20.80;;;;;;;1.11;100.00;102529.53;5022327;28;20076;-58
2023/03/03 08:56:50;;;;;;;44.53;20.80;;;;;;;1.07;100.00;102517.47;5024213;28;20030;-58
2023/03/03 08:59:16;;;;;;;42.03;21.10;;;;;;;1.08;100.00;102534.84;5029213;28;20481;-58
2023/03/03 09:01:43;;;;;;;42.50;19.90;;;;;;;1.08;100.00;102532.25;5040161;28;20025;-58
2023/03/03 09:04:09;;;;;;;37.70;19.37;;;;;;;1.12;100.00;102526.00;5039624;28;20639;-58
2023/03/03 09:06:34;;;;;;;40.43;18.87;;;;;;;1.16;100.00;102532.81;5028596;28;20132;-58
2023/03/03 09:09:00;;;;;;;40.40;19.57;;;;;;;1.16;100.00;102535.44;5027115;28;20071;-57
2023/03/03 09:11:27;;;;;;;38.03;18.27;;;;;;;1.23;100.00;102527.38;5028402;28;20045;-58
2023/03/03 09:14:09;;;;;;;37.17;18.60;;;;;;;1.19;100.00;102527.47;5039844;28;20032;-57
2023/03/03 09:16:39;;;;;;;36.10;17.25;;;;;;;1.24;99.86;102534.28;5028237;28;20437;-58
2023/03/03 09:19:31;;;;;;;36.07;18.33;;;;;;;1.28;99.96;102530.66;5029188;28;20017;-58
2023/03/03 09:22:02;;;;;;;35.33;18.30;;;;;;;1.34;100.00;102535.66;5035815;28;20500;-58
2023/03/03 09:24:30;;;;;;;33.07;17.03;;;;;;;1.32;99.09;102527.00;5033853;28;20141;-58
2023/03/03 09:26:57;;;;;;;31.43;16.20;;;;;;;1.41;97.81;102537.13;5022020;28;20037;-57
2023/03/03 09:29:30;;;;;;;31.73;16.60;;;;;;;1.44;96.99;102536.97;5023758;28;20072;-58
2023/03/03 09:31:59;;;;;;;29.38;15.80;;;;;;;1.52;97.66;102538.47;5020208;28;20037;-60
2023/03/03 09:34:35;;;;;;;28.67;15.73;;;;;;;1.56;96.86;102537.41;5020784;28;20100;-58
2023/03/03 09:37:17;;;;;;;31.47;15.93;;;;;;;1.57;96.74;102539.09;5022824;28;20029;-58
2023/03/03 09:39:43;;;;;;;30.30;15.57;;;;;;;1.65;97.24;102549.28;5020002;28;20033;-58
2023/03/03 09:42:14;;;;;;;30.03;14.60;;;;;;;1.72;96.53;102545.50;5026510;28;20095;-59
2023/03/03 09:44:52;;;;;;;26.80;14.00;;;;;;;1.76;95.29;102546.25;5018953;28;20041;-57
2023/03/03 09:47:42;;;;;;;27.87;14.10;;;;;;;1.80;95.72;102546.06;5022416;28;20050;-58
2023/03/03 09:50:16;;;;;;;27.20;13.17;;;;;;;1.88;94.48;102551.00;5020214;28;20030;-58
2023/03/03 09:53:09;;;;;;;26.90;13.50;;;;;;;1.91;93.84;102550.03;5020418;28;20414;-58
2023/03/03 09:55:53;;;;;;;25.70;13.00;;;;;;;1.92;94.82;102551.72;5023419;28;20033;-60
2023/03/03 09:58:44;;;;;;;24.07;12.53;;;;;;;2.04;94.46;102556.44;5024599;28;20064;-59
2023/03/03 10:01:12;;;;;;;25.00;12.50;;;;;;;2.05;93.47;102558.16;5015752;28;20030;-58
2023/03/03 10:03:59;;;;;;;26.27;13.13;;;;;;;2.00;93.05;102557.47;5029536;28;20502;-58
2023/03/03 10:06:32;;;;;;;25.40;12.20;;;;;;;2.14;94.11;102552.50;5023043;28;20076;-59
2023/03/03 10:09:20;;;;;;;23.43;12.60;;;;;;;2.12;93.23;102559.59;5032548;28;20397;-58
2023/03/03 10:11:56;;;;;;;24.90;13.03;;;;;;;2.14;92.86;102559.53;5020687;28;20057;-60
2023/03/03 10:14:31;;;;;;;24.43;11.80;;;;;;;2.20;92.44;102556.66;5021565;28;20091;-58
2023/03/03 10:17:08;;;;;;;22.40;11.43;;;;;;;2.27;92.59;102558.09;5015576;28;20038;-59
2023/03/03 10:19:47;;;;;;;24.30;12.70;;;;;;;2.33;92.84;102561.38;5015530;28;20044;-58
2023/03/03 10:22:19;;;;;;;22.67;12.10;;;;;;;2.32;91.67;102552.66;5019314;28;20057;-58
2023/03/03 10:24:57;;;;;;;24.23;11.93;;;;;;;2.41;92.86;102564.50;5017320;28;20064;-60
2023/03/03 10:28:14;;;;;;;24.70;11.60;;;;;;;2.52;92.73;102561.47;5018456;28;20031;-58
2023/03/03 10:31:07;;;;;;;23.33;11.30;;;;;;;2.51;92.31;102565.84;4991525;28;20386;-60
2023/03/03 10:33:56;;;;;;;22.13;11.93;;;;;;;2.57;90.94;102564.72;4993608;28;20096;-61
2023/03/03 10:36:32;;;;;;;22.80;12.73;;;;;;;2.46;90.92;102565.19;5017672;28;20180;-58
2023/03/03 10:39:39;;;;;;;23.50;11.97;;;;;;;2.52;92.29;102562.28;5032139;28;20132;-60
2023/03/03 10:42:22;;;;;;;22.30;12.03;;;;;;;2.49;92.21;102566.81;5009085;28;20520;-58
2023/03/03 10:45:16;;;;;;;24.53;12.70;;;;;;;2.49;91.47;102564.19;5014031;28;20054;-58
2023/03/03 10:48:03;;;;;;;24.80;12.50;;;;;;;2.57;91.97;102556.00;5013770;28;20054;-58
2023/03/03 10:50:53;;;;;;;24.97;12.50;;;;;;;2.60;91.04;102561.09;5017901;28;20037;-58
2023/03/03 10:53:25;;;;;;;23.47;12.77;;;;;;;2.62;91.98;102556.66;5023125;28;20029;-58
2023/03/03 10:55:51;;;;;;;22.63;12.57;;;;;;;2.69;91.01;102558.09;5017533;28;20577;-59
2023/03/03 10:58:44;;;;;;;24.60;12.97;;;;;;;2.79;91.11;102559.41;5017695;28;20101;-58
2023/03/03 11:01:28;;;;;;;25.60;13.63;;;;;;;2.85;90.91;102558.28;5019234;28;20029;-58
2023/03/03 11:04:19;;;;;;;23.17;12.33;;;;;;;2.94;90.18;102559.63;5019667;28;20044;-58
2023/03/03 11:06:48;;;;;;;22.47;12.60;;;;;;;2.99;90.05;102549.78;5011123;28;20041;-58
2023/03/03 11:09:43;;;;;;;23.47;12.57;;;;;;;3.03;90.12;102551.38;5019488;28;20113;-58
2023/03/03 11:12:46;;;;;;;23.93;12.27;;;;;;;3.18;89.70;102548.94;5023206;28;20106;-58
2023/03/03 11:15:17;;;;;;;24.13;12.75;;;;;;;3.26;89.17;102552.06;5022668;28;20373;-60
2023/03/03 11:18:04;;;;;;;23.50;12.63;;;;;;;3.38;88.82;102549.78;5016871;28;20067;-58
2023/03/03 11:20:45;;;;;;;24.00;12.93;;;;;;;3.40;87.33;102550.59;5022771;28;20033;-58
2023/03/03 11:23:45;;;;;;;22.50;12.33;;;;;;;3.37;87.73;102548.97;5032232;28;20032;-59
2023/03/03 11:26:13;;;;;;;22.43;11.97;;;;;;;3.47;87.80;102544.13;5028932;28;20116;-58